Time;durP1;ratioP1;P1;durP2;ratioP2;P2;SDS_P1;SDS_P2;PMS_P1;PMS_P2;Temp;Humidity;BMP_temperature;BMP_pressure;BME280_temperature;BME280_humidity;BME280_pressure;Samples;Min_cycle;Max_cycle;Signal;HPM_P1;HPM_P2
2022/10/20 00:02:23;;;;;;;0.90;0.80;;;25.50;63.60;;;;;;5073102;28;20446;-85
2022/10/20 00:04:50;;;;;;;0.80;0.80;;;25.40;63.50;;;;;;5073005;28;20474;-85
2022/10/20 00:07:17;;;;;;;0.80;0.80;;;25.40;63.80;;;;;;5073357;28;20443;-86
2022/10/20 00:09:43;;;;;;;0.90;0.80;;;25.40;63.50;;;;;;5073188;28;20972;-86
2022/10/20 00:12:12;;;;;;;1.00;0.90;;;25.40;63.30;;;;;;5073507;28;20450;-86
2022/10/20 00:14:38;;;;;;;0.80;0.80;;;25.40;63.40;;;;;;5072772;28;20455;-86
2022/10/20 00:17:05;;;;;;;0.97;0.90;;;25.40;63.40;;;;;;5073253;28;20440;-85
2022/10/20 00:19:32;;;;;;;1.23;0.83;;;25.40;63.50;;;;;;5073024;28;20439;-86
2022/10/20 00:21:59;;;;;;;0.97;0.87;;;25.40;63.60;;;;;;5073014;28;20837;-86
2022/10/20 00:24:26;;;;;;;0.93;0.80;;;25.40;63.50;;;;;;5072789;28;20488;-86
2022/10/20 00:26:53;;;;;;;0.80;0.77;;;25.40;63.60;;;;;;5073011;28;20810;-86
2022/10/20 00:29:21;;;;;;;1.10;1.00;;;25.40;63.50;;;;;;5072774;28;20443;-86
2022/10/20 00:31:47;;;;;;;1.00;0.90;;;25.40;63.40;;;;;;5073321;28;20432;-86
2022/10/20 00:34:14;;;;;;;0.90;0.80;;;25.40;63.50;;;;;;5072852;28;20467;-85
2022/10/20 00:36:41;;;;;;;1.00;0.90;;;25.40;63.60;;;;;;5072606;28;20443;-86
2022/10/20 00:39:08;;;;;;;0.93;0.87;;;25.40;63.40;;;;;;5072960;28;20448;-86
2022/10/20 00:41:35;;;;;;;0.83;0.77;;;25.40;63.30;;;;;;5073070;28;20922;-85
2022/10/20 00:44:03;;;;;;;1.00;0.90;;;25.40;63.30;;;;;;5072697;28;20491;-86
2022/10/20 00:46:36;;;;;;;0.80;0.80;;;25.40;63.40;;;;;;5072625;28;20442;-85
2022/10/20 00:49:08;;;;;;;0.90;0.80;;;25.40;63.40;;;;;;5076574;28;20956;-86
2022/10/20 00:51:35;;;;;;;1.00;0.90;;;25.40;63.30;;;;;;5076438;28;20802;-86
2022/10/20 00:54:08;;;;;;;1.17;0.80;;;25.50;63.50;;;;;;5076461;28;20440;-86
2022/10/20 00:56:37;;;;;;;1.83;0.90;;;25.40;63.30;;;;;;5075994;28;20965;-86
2022/10/20 00:59:04;;;;;;;0.97;0.83;;;25.40;63.20;;;;;;5076188;28;20946;-86
2022/10/20 01:01:33;;;;;;;1.00;0.90;;;25.30;63.20;;;;;;5076518;28;20454;-88
2022/10/20 01:04:00;;;;;;;1.00;0.90;;;25.30;63.30;;;;;;5075743;28;20498;-86
2022/10/20 01:06:27;;;;;;;0.97;0.87;;;25.30;63.40;;;;;;5075931;28;20447;-86
2022/10/20 01:08:55;;;;;;;0.80;0.63;;;25.30;63.30;;;;;;5075859;28;20432;-86
2022/10/20 01:11:31;;;;;;;1.00;0.70;;;25.30;63.20;;;;;;5075894;28;20443;-86
2022/10/20 01:14:11;;;;;;;0.87;0.73;;;25.40;63.20;;;;;;5075823;28;20435;-86
2022/10/20 01:16:48;;;;;;;0.87;0.80;;;25.30;63.10;;;;;;5075905;28;20442;-86
2022/10/20 01:19:47;;;;;;;1.10;0.83;;;25.30;63.20;;;;;;5075771;28;20435;-86
2022/10/20 01:22:31;;;;;;;1.00;0.90;;;25.30;63.10;;;;;;5075835;28;20473;-86
2022/10/20 01:25:07;;;;;;;0.90;0.70;;;25.30;63.30;;;;;;5075517;28;21002;-85
2022/10/20 01:27:38;;;;;;;0.90;0.80;;;25.30;63.20;;;;;;5075715;28;20440;-85
2022/10/20 01:30:13;;;;;;;0.80;0.70;;;25.30;63.10;;;;;;5075815;28;20438;-86
2022/10/20 01:33:09;;;;;;;1.00;0.90;;;25.30;63.20;;;;;;5075181;28;20505;-86
2022/10/20 01:35:47;;;;;;;0.70;0.70;;;25.30;63.00;;;;;;5054938;28;20465;-86
2022/10/20 01:38:22;;;;;;;0.80;0.80;;;25.30;63.20;;;;;;5075474;28;20449;-85
2022/10/20 01:40:54;;;;;;;0.90;0.80;;;25.30;63.20;;;;;;5075652;28;20448;-85
2022/10/20 01:43:25;;;;;;;0.90;0.80;;;25.30;63.30;;;;;;5075147;28;20482;-86
2022/10/20 01:45:53;;;;;;;0.93;0.83;;;25.20;63.20;;;;;;5075571;28;20445;-86
2022/10/20 01:48:23;;;;;;;0.90;0.80;;;25.20;63.10;;;;;;5075164;28;20442;-85
2022/10/20 01:50:50;;;;;;;0.80;0.80;;;25.20;63.00;;;;;;5075429;28;20433;-86
2022/10/20 01:53:20;;;;;;;0.80;0.80;;;25.20;63.00;;;;;;5075208;28;20441;-89
2022/10/20 01:55:51;;;;;;;0.80;0.60;;;25.20;63.00;;;;;;5075341;28;20431;-85
2022/10/20 01:58:45;;;;;;;0.90;0.80;;;25.20;63.00;;;;;;5075452;28;20983;-86
2022/10/20 02:01:20;;;;;;;0.73;0.70;;;25.30;63.00;;;;;;5075209;28;20450;-85
2022/10/20 02:03:53;;;;;;;0.80;0.80;;;25.20;63.00;;;;;;5074739;28;20497;-86
2022/10/20 02:06:29;;;;;;;1.00;0.90;;;25.20;63.00;;;;;;5075730;28;20435;-86
2022/10/20 02:08:59;;;;;;;0.93;0.87;;;25.20;63.00;;;;;;5075126;28;20437;-86
2022/10/20 02:11:32;;;;;;;0.77;0.70;;;25.20;63.00;;;;;;5075087;28;20930;-86
2022/10/20 02:14:01;;;;;;;0.97;0.87;;;25.20;63.00;;;;;;5074992;28;20936;-86
2022/10/20 02:16:32;;;;;;;0.90;0.80;;;25.20;62.80;;;;;;5074608;28;20439;-86
2022/10/20 02:19:00;;;;;;;0.80;0.70;;;25.20;62.90;;;;;;5074881;28;20434;-86
2022/10/20 02:21:27;;;;;;;3.43;0.97;;;25.40;63.00;;;;;;5074560;28;20440;-85
2022/10/20 02:23:56;;;;;;;0.90;0.80;;;25.20;63.00;;;;;;5074395;28;20469;-88
2022/10/20 02:26:25;;;;;;;0.90;0.80;;;25.20;62.90;;;;;;5074865;28;20782;-88
2022/10/20 02:28:55;;;;;;;0.90;0.80;;;25.20;62.90;;;;;;5074330;28;20942;-86
2022/10/20 02:31:24;;;;;;;0.80;0.80;;;25.20;63.00;;;;;;5074577;28;20451;-86
2022/10/20 02:33:53;;;;;;;0.80;0.70;;;25.20;63.00;;;;;;5074359;28;20471;-87
2022/10/20 02:36:24;;;;;;;0.80;0.80;;;25.20;62.90;;;;;;5056430;28;20444;-88
2022/10/20 02:38:51;;;;;;;1.03;0.93;;;25.20;62.80;;;;;;5074206;28;20436;-85
2022/10/20 02:41:18;;;;;;;0.80;0.70;;;25.20;62.90;;;;;;5074113;28;20537;-87
2022/10/20 02:43:45;;;;;;;0.80;0.77;;;25.20;62.90;;;;;;5074103;28;20567;-86
2022/10/20 02:46:12;;;;;;;0.80;0.70;;;25.20;62.80;;;;;;5074014;28;20447;-86
2022/10/20 02:48:40;;;;;;;1.10;0.80;;;25.20;62.80;;;;;;5074351;28;20448;-85
2022/10/20 02:51:06;;;;;;;0.80;0.70;;;25.20;62.80;;;;;;5074173;28;20477;-85
2022/10/20 02:53:33;;;;;;;0.90;0.80;;;25.20;62.80;;;;;;5073983;28;20428;-86
2022/10/20 02:56:00;;;;;;;0.80;0.70;;;25.20;62.70;;;;;;5073924;28;20443;-86
2022/10/20 02:58:27;;;;;;;0.90;0.80;;;25.20;62.80;;;;;;5073721;28;20480;-86
2022/10/20 03:00:54;;;;;;;1.10;1.00;;;25.10;62.70;;;;;;5074173;28;20792;-85
2022/10/20 03:03:21;;;;;;;0.80;0.73;;;25.10;62.80;;;;;;5073532;28;20471;-87
2022/10/20 03:05:49;;;;;;;0.80;0.80;;;25.20;62.80;;;;;;5073981;28;20433;-89
2022/10/20 03:08:16;;;;;;;0.80;0.70;;;25.10;62.70;;;;;;5073918;28;20447;-86
2022/10/20 03:10:43;;;;;;;0.80;0.80;;;25.10;62.70;;;;;;5073293;28;20796;-86
2022/10/20 03:13:10;;;;;;;0.80;0.80;;;25.10;62.70;;;;;;5073765;28;20441;-85
2022/10/20 03:15:37;;;;;;;0.80;0.80;;;25.10;62.60;;;;;;5073520;28;20443;-86
2022/10/20 03:18:04;;;;;;;1.10;1.00;;;25.10;62.60;;;;;;5073497;28;20453;-86
2022/10/20 03:20:31;;;;;;;0.80;0.80;;;25.10;62.60;;;;;;5073742;28;20486;-86
2022/10/20 03:22:59;;;;;;;0.80;0.80;;;25.10;62.60;;;;;;5073468;28;20443;-86
2022/10/20 03:25:26;;;;;;;0.80;0.70;;;25.10;62.60;;;;;;5073771;28;20565;-86
2022/10/20 03:27:53;;;;;;;0.80;0.80;;;25.10;62.70;;;;;;5073717;28;20450;-85
2022/10/20 03:30:20;;;;;;;0.80;0.73;;;25.10;62.70;;;;;;5073644;28;20439;-86
2022/10/20 03:32:46;;;;;;;0.80;0.70;;;25.10;62.70;;;;;;5073405;28;21068;-86
2022/10/20 03:35:13;;;;;;;0.80;0.77;;;25.10;62.60;;;;;;5073649;28;20441;-86
2022/10/20 03:37:40;;;;;;;0.90;0.77;;;25.10;62.60;;;;;;5073565;28;20483;-85
2022/10/20 03:40:09;;;;;;;0.80;0.70;;;25.00;62.50;;;;;;5073546;28;20439;-86
2022/10/20 03:42:36;;;;;;;0.70;0.60;;;25.10;62.60;;;;;;5073582;28;20941;-86
2022/10/20 03:45:03;;;;;;;0.80;0.70;;;25.10;62.60;;;;;;5072985;28;20483;-85
2022/10/20 03:47:30;;;;;;;0.80;0.80;;;25.10;62.50;;;;;;5073415;28;20439;-86
2022/10/20 03:49:57;;;;;;;0.93;0.90;;;25.10;62.50;;;;;;5073094;28;20525;-86
2022/10/20 03:52:23;;;;;;;0.80;0.70;;;25.10;62.50;;;;;;5073524;28;20442;-86
2022/10/20 03:54:50;;;;;;;0.70;0.70;;;25.10;62.50;;;;;;5073148;28;21051;-86
2022/10/20 03:57:19;;;;;;;0.80;0.80;;;25.10;62.50;;;;;;5073558;28;20445;-86
2022/10/20 03:59:46;;;;;;;0.80;0.70;;;25.10;62.50;;;;;;5073483;28;20445;-85
2022/10/20 04:02:29;;;;;;;0.90;0.80;;;25.00;62.50;;;;;;5072934;28;20449;-85
2022/10/20 04:04:56;;;;;;;0.80;0.80;;;25.00;62.30;;;;;;5073485;28;20834;-86
2022/10/20 04:07:23;;;;;;;0.80;0.80;;;25.00;62.50;;;;;;5073389;28;20449;-86
2022/10/20 04:09:49;;;;;;;0.83;0.80;;;25.00;62.50;;;;;;5073300;28;20438;-86
2022/10/20 04:12:16;;;;;;;0.90;0.87;;;25.00;62.50;;;;;;5073109;28;20438;-85
2022/10/20 04:14:44;;;;;;;0.80;0.80;;;25.00;62.40;;;;;;5072841;28;20447;-86
2022/10/20 04:17:11;;;;;;;1.00;0.90;;;25.00;62.40;;;;;;5072975;28;20452;-86
2022/10/20 04:19:38;;;;;;;0.80;0.80;;;25.00;62.50;;;;;;5072927;28;20443;-88
2022/10/20 04:22:05;;;;;;;0.90;0.80;;;25.00;62.50;;;;;;5074308;28;20430;-86
2022/10/20 04:24:32;;;;;;;0.93;0.83;;;25.00;62.50;;;;;;5076957;28;20481;-86
2022/10/20 04:26:58;;;;;;;0.80;0.70;;;25.00;62.50;;;;;;5076773;28;20452;-85
2022/10/20 04:29:25;;;;;;;0.80;0.70;;;25.10;62.50;;;;;;5076865;28;20958;-85
2022/10/20 04:31:53;;;;;;;0.90;0.70;;;25.00;62.40;;;;;;5076917;28;20452;-86
2022/10/20 04:34:20;;;;;;;0.90;0.80;;;25.00;62.40;;;;;;5076795;28;20462;-86
2022/10/20 04:36:47;;;;;;;0.80;0.80;;;25.00;62.40;;;;;;5077049;28;20452;-87
2022/10/20 04:39:14;;;;;;;1.00;0.87;;;25.00;62.90;;;;;;5076430;28;20434;-86
2022/10/20 04:41:41;;;;;;;0.90;0.80;;;25.00;62.40;;;;;;5076454;28;20446;-86
2022/10/20 04:44:08;;;;;;;0.90;0.80;;;25.00;62.50;;;;;;5076402;28;20807;-85
2022/10/20 04:46:35;;;;;;;1.00;0.90;;;25.00;63.20;;;;;;5076686;28;20444;-86
2022/10/20 04:49:04;;;;;;;0.80;0.70;;;25.00;62.40;;;;;;5076588;28;20468;-85
2022/10/20 04:51:30;;;;;;;0.90;0.80;;;25.00;62.50;;;;;;5076651;28;20430;-85
2022/10/20 04:53:57;;;;;;;0.80;0.70;;;25.00;62.50;;;;;;5076719;28;20435;-86
2022/10/20 04:56:24;;;;;;;0.90;0.80;;;25.00;62.40;;;;;;5076462;28;20429;-85
2022/10/20 04:58:53;;;;;;;0.80;0.70;;;25.00;62.40;;;;;;5058434;28;20445;-85
2022/10/20 05:01:21;;;;;;;0.80;0.80;;;25.00;62.40;;;;;;5076059;28;20453;-86
2022/10/20 05:03:48;;;;;;;0.80;0.70;;;25.00;62.40;;;;;;5075992;28;20825;-85
2022/10/20 05:06:18;;;;;;;0.80;0.80;;;25.00;62.40;;;;;;5076178;28;20485;-86
2022/10/20 05:08:47;;;;;;;1.00;0.90;;;25.00;62.40;;;;;;5076233;28;20454;-85
2022/10/20 05:11:15;;;;;;;0.80;0.77;;;25.00;62.40;;;;;;5076176;28;20438;-86
2022/10/20 05:13:42;;;;;;;1.00;0.90;;;24.90;62.30;;;;;;5075697;28;20516;-86
2022/10/20 05:16:10;;;;;;;0.70;0.70;;;24.90;62.30;;;;;;5075711;28;20447;-87
2022/10/20 05:18:36;;;;;;;0.80;0.80;;;24.90;62.30;;;;;;5075827;28;20922;-84
2022/10/20 05:21:06;;;;;;;0.80;0.70;;;24.90;62.30;;;;;;5075970;28;20438;-85
2022/10/20 05:23:34;;;;;;;0.80;0.70;;;24.90;62.30;;;;;;5075702;28;20445;-85
2022/10/20 05:26:03;;;;;;;0.87;0.87;;;24.90;62.20;;;;;;5075381;28;20478;-85
2022/10/20 05:28:30;;;;;;;0.80;0.70;;;25.00;63.20;;;;;;5075928;28;20494;-85
2022/10/20 05:30:56;;;;;;;0.80;0.80;;;24.90;62.30;;;;;;5075407;28;20438;-88
2022/10/20 05:33:23;;;;;;;0.80;0.80;;;24.90;62.30;;;;;;5075242;28;20948;-86
2022/10/20 05:35:50;;;;;;;0.80;0.80;;;24.90;62.30;;;;;;5075455;28;20951;-87
2022/10/20 05:38:17;;;;;;;0.80;0.70;;;24.90;62.30;;;;;;5075395;28;20446;-88
2022/10/20 05:40:45;;;;;;;0.80;0.80;;;24.90;62.40;;;;;;5075815;28;20446;-85
2022/10/20 05:43:11;;;;;;;0.93;0.90;;;24.90;62.30;;;;;;5075481;28;20947;-85
2022/10/20 05:45:38;;;;;;;1.03;0.93;;;24.90;62.30;;;;;;5075566;28;20485;-87
2022/10/20 05:48:05;;;;;;;0.80;0.80;;;24.90;62.30;;;;;;5075318;28;20491;-85
2022/10/20 05:50:32;;;;;;;0.90;0.80;;;24.90;62.30;;;;;;5075193;28;20918;-85
2022/10/20 05:52:59;;;;;;;0.90;0.90;;;24.90;62.20;;;;;;5075362;28;20440;-85
2022/10/20 05:55:26;;;;;;;0.80;0.80;;;24.90;62.20;;;;;;5075141;28;20437;-87
2022/10/20 05:57:54;;;;;;;0.90;0.80;;;24.90;62.30;;;;;;5075125;28;20442;-86
2022/10/20 06:00:29;;;;;;;0.80;0.80;;;24.90;62.30;;;;;;5075197;28;20437;-87
2022/10/20 06:02:56;;;;;;;0.80;0.70;;;24.90;62.30;;;;;;5074693;28;20494;-85
2022/10/20 06:05:23;;;;;;;1.00;0.90;;;24.80;62.20;;;;;;5074894;28;20475;-85
2022/10/20 06:07:50;;;;;;;1.00;0.90;;;24.90;62.20;;;;;;5075118;28;20447;-88
2022/10/20 06:10:16;;;;;;;1.00;0.80;;;25.00;62.30;;;;;;5074759;28;20442;-88
2022/10/20 06:12:43;;;;;;;0.80;0.80;;;24.90;62.30;;;;;;5074490;28;20935;-85
2022/10/20 06:15:11;;;;;;;0.87;0.70;;;24.90;62.20;;;;;;5074900;28;20444;-86
2022/10/20 06:17:38;;;;;;;0.73;0.70;;;24.90;62.30;;;;;;5074507;28;20922;-86
2022/10/20 06:20:06;;;;;;;0.93;0.83;;;24.90;62.30;;;;;;5074644;28;20931;-85
2022/10/20 06:22:32;;;;;;;0.80;0.80;;;24.90;62.30;;;;;;5074765;28;20443;-85
2022/10/20 06:24:59;;;;;;;0.80;0.70;;;24.90;62.30;;;;;;5074408;28;20486;-86
2022/10/20 06:27:26;;;;;;;0.90;0.83;;;24.80;62.20;;;;;;5074679;28;20434;-86
2022/10/20 06:29:53;;;;;;;0.80;0.80;;;24.80;62.20;;;;;;5074746;28;20443;-86
2022/10/20 06:32:21;;;;;;;0.93;0.83;;;24.90;62.30;;;;;;5074262;28;20944;-85
2022/10/20 06:34:48;;;;;;;1.00;0.90;;;24.90;62.40;;;;;;5074516;28;20460;-87
2022/10/20 06:37:15;;;;;;;0.80;0.80;;;24.80;62.10;;;;;;5074392;28;20435;-89
2022/10/20 06:39:41;;;;;;;0.90;0.80;;;24.80;62.20;;;;;;5074468;28;20438;-85
2022/10/20 06:42:08;;;;;;;1.20;1.10;;;24.80;62.20;;;;;;5073950;28;20969;-85
2022/10/20 06:44:35;;;;;;;0.90;0.80;;;24.80;62.20;;;;;;5073294;28;20963;-85
2022/10/20 06:47:02;;;;;;;0.80;0.70;;;24.80;62.20;;;;;;5074246;28;20819;-86
2022/10/20 06:49:30;;;;;;;1.20;1.10;;;24.80;62.20;;;;;;5074213;28;20435;-87
2022/10/20 06:51:57;;;;;;;1.00;0.90;;;24.80;62.20;;;;;;5074150;28;20435;-85
2022/10/20 06:54:23;;;;;;;1.03;0.93;;;24.80;62.20;;;;;;5073781;28;20448;-85
2022/10/20 06:56:50;;;;;;;0.90;0.90;;;24.80;62.10;;;;;;5073815;28;20439;-88
2022/10/20 06:59:17;;;;;;;1.17;0.97;;;24.80;62.10;;;;;;5073874;28;20441;-87
2022/10/20 07:01:44;;;;;;;1.10;1.00;;;24.80;62.10;;;;;;5070025;28;20447;-88
2022/10/20 07:04:14;;;;;;;1.40;1.03;;;24.80;62.00;;;;;;5072642;28;20473;-85
2022/10/20 07:06:44;;;;;;;1.20;1.10;;;24.80;62.10;;;;;;5073209;28;20840;-84
2022/10/20 07:09:13;;;;;;;1.10;1.00;;;24.80;62.30;;;;;;5073824;28;20442;-86
2022/10/20 07:11:41;;;;;;;1.10;1.00;;;24.80;62.40;;;;;;5073746;28;20437;-86
2022/10/20 07:14:08;;;;;;;4.73;1.20;;;24.80;62.10;;;;;;5073967;28;20548;-86
2022/10/20 07:16:35;;;;;;;1.10;0.90;;;24.80;62.10;;;;;;5073752;28;20446;-86
2022/10/20 07:19:03;;;;;;;1.50;1.07;;;24.80;62.20;;;;;;5073468;28;20445;-86
2022/10/20 07:21:30;;;;;;;1.30;1.20;;;24.80;62.20;;;;;;5072784;28;20447;-86
2022/10/20 07:24:01;;;;;;;2.50;1.10;;;24.80;62.30;;;;;;5073582;28;20446;-86
2022/10/20 07:26:30;;;;;;;2.17;1.20;;;25.00;62.70;;;;;;5073161;28;20511;-86
2022/10/20 07:28:59;;;;;;;1.27;1.17;;;24.80;62.50;;;;;;5073165;28;20457;-86
2022/10/20 07:31:28;;;;;;;1.30;1.20;;;24.80;62.50;;;;;;5073116;28;20451;-85
2022/10/20 07:33:57;;;;;;;2.73;1.20;;;24.80;62.50;;;;;;5073036;28;20502;-86
2022/10/20 07:36:27;;;;;;;1.10;1.00;;;24.90;62.80;;;;;;5073134;28;20458;-86
2022/10/20 07:38:57;;;;;;;1.20;1.10;;;24.80;62.60;;;;;;5071512;28;20451;-88
2022/10/20 07:41:26;;;;;;;1.30;1.20;;;24.80;62.60;;;;;;5059289;28;20454;-86
2022/10/20 07:43:53;;;;;;;1.20;1.10;;;24.80;62.70;;;;;;5073458;28;20430;-85
2022/10/20 07:46:22;;;;;;;2.17;1.00;;;24.80;62.70;;;;;;5073530;28;20493;-85
2022/10/20 07:48:49;;;;;;;1.20;1.10;;;24.80;62.60;;;;;;5073310;28;20916;-88
2022/10/20 07:51:27;;;;;;;1.20;1.10;;;24.80;62.60;;;;;;5073712;28;20447;-89
2022/10/20 07:53:56;;;;;;;1.40;1.27;;;24.90;62.60;;;;;;5073157;28;20802;-87
2022/10/20 07:56:27;;;;;;;1.57;1.10;;;24.80;62.60;;;;;;5074630;28;20446;-85
2022/10/20 07:58:54;;;;;;;1.30;1.20;;;25.00;63.00;;;;;;5077572;28;20531;-88
2022/10/20 08:01:21;;;;;;;1.30;1.13;;;24.90;62.50;;;;;;5077130;28;20450;-85
2022/10/20 08:03:48;;;;;;;1.10;1.00;;;24.90;62.40;;;;;;5077208;28;20893;-85
2022/10/20 08:06:16;;;;;;;1.87;1.20;;;24.90;62.60;;;;;;5074823;28;20665;-84
2022/10/20 08:08:43;;;;;;;1.07;0.97;;;25.00;62.50;;;;;;5084226;28;20449;-84
2022/10/20 08:11:10;;;;;;;1.33;1.23;;;25.00;62.50;;;;;;5073369;28;20951;-86
2022/10/20 08:13:39;;;;;;;1.40;1.30;;;25.00;62.00;;;;;;5077113;28;20805;-91
2022/10/20 08:16:07;;;;;;;1.63;1.20;;;25.00;61.40;;;;;;5071159;28;20470;-91
2022/10/20 08:18:34;;;;;;;1.20;1.10;;;25.00;61.40;;;;;;5061338;28;20450;-92
2022/10/20 08:21:09;;;;;;;1.57;1.17;;;25.10;61.40;;;;;;5076690;28;20450;-91
2022/10/20 08:23:39;;;;;;;1.20;1.10;;;25.10;61.50;;;;;;5076146;28;20960;-89
2022/10/20 08:26:06;;;;;;;1.30;1.20;;;25.10;61.60;;;;;;5076552;28;20485;-89
2022/10/20 08:28:33;;;;;;;1.30;1.20;;;25.10;61.70;;;;;;5076396;28;20451;-89
2022/10/20 08:31:03;;;;;;;1.10;0.93;;;25.20;61.70;;;;;;5076376;28;20451;-89
2022/10/20 08:33:30;;;;;;;1.30;1.17;;;25.20;61.70;;;;;;5076494;28;20792;-88
2022/10/20 08:36:01;;;;;;;1.10;1.00;;;25.20;61.70;;;;;;5076355;28;20447;-88
2022/10/20 08:38:28;;;;;;;1.13;1.03;;;25.20;61.60;;;;;;5075972;28;20446;-88
2022/10/20 08:40:55;;;;;;;1.10;1.00;;;25.20;61.50;;;;;;5067738;28;20500;-88
2022/10/20 08:43:22;;;;;;;1.83;1.23;;;25.20;61.50;;;;;;5063458;28;20450;-91
2022/10/20 08:45:49;;;;;;;1.60;1.20;;;25.10;61.50;;;;;;5076622;28;20487;-89
2022/10/20 08:48:21;;;;;;;1.30;1.20;;;25.20;61.60;;;;;;5068702;28;20463;-88
2022/10/20 08:50:50;;;;;;;1.40;1.00;;;25.20;61.50;;;;;;5056013;28;20452;-89
2022/10/20 08:53:19;;;;;;;1.57;1.10;;;25.20;61.60;;;;;;5072785;28;20438;-92
2022/10/20 08:55:47;;;;;;;3.03;1.60;;;25.20;61.60;;;;;;5075405;28;21121;-90
2022/10/20 08:58:15;;;;;;;1.30;1.00;;;25.20;61.60;;;;;;5075368;28;20454;-90
2022/10/20 09:00:43;;;;;;;1.23;1.10;;;25.20;61.60;;;;;;5075394;28;20443;-90
2022/10/20 09:03:20;;;;;;;1.10;1.00;;;25.20;61.80;;;;;;5066561;28;20498;-91
2022/10/20 09:05:52;;;;;;;1.50;1.30;;;25.20;61.90;;;;;;5055786;28;20497;-89
2022/10/20 09:08:21;;;;;;;1.03;0.97;;;25.20;62.00;;;;;;5060609;28;20455;-86
2022/10/20 09:10:51;;;;;;;1.20;1.10;;;25.30;62.10;;;;;;5069738;28;20473;-88
2022/10/20 09:13:22;;;;;;;1.20;1.10;;;25.30;62.10;;;;;;5067728;28;20453;-90
2022/10/20 09:15:50;;;;;;;1.30;1.20;;;25.40;63.00;;;;;;5056562;28;20476;-92
2022/10/20 09:18:20;;;;;;;1.10;1.00;;;25.40;62.10;;;;;;5056447;28;20827;-89
2022/10/20 09:20:52;;;;;;;1.23;1.13;;;25.60;62.10;;;;;;5071165;28;20463;-89
2022/10/20 09:23:23;;;;;;;1.17;1.00;;;25.80;61.80;;;;;;5075324;28;20451;-90
2022/10/20 09:25:51;;;;;;;1.30;1.20;;;26.00;61.40;;;;;;5076298;28;20482;-92
2022/10/20 09:28:23;;;;;;;1.53;1.43;;;26.30;61.00;;;;;;5075467;28;20447;-89
2022/10/20 09:30:50;;;;;;;1.10;1.00;;;26.50;60.50;;;;;;5074286;28;20540;-87
2022/10/20 09:33:35;;;;;;;2.00;1.10;;;26.70;60.10;;;;;;5056587;28;20819;-88
2022/10/20 09:36:05;;;;;;;1.60;1.20;;;26.80;59.50;;;;;;5070738;28;21150;-88
2022/10/20 09:38:34;;;;;;;1.20;1.10;;;26.60;59.50;;;;;;5074164;28;20920;-90
2022/10/20 09:41:10;;;;;;;1.20;1.10;;;26.50;59.90;;;;;;5053896;28;20833;-92
2022/10/20 09:43:40;;;;;;;1.30;1.10;;;26.40;60.20;;;;;;5057982;28;20469;-91
2022/10/20 09:46:09;;;;;;;1.70;1.07;;;26.30;61.30;;;;;;5064256;28;20475;-91
2022/10/20 09:48:40;;;;;;;1.30;1.20;;;26.20;60.80;;;;;;5075138;28;20957;-89
2022/10/20 09:51:14;;;;;;;1.10;1.00;;;26.10;60.90;;;;;;5075590;28;20428;-90
2022/10/20 09:53:55;;;;;;;1.40;1.30;;;26.00;61.90;;;;;;5075679;28;20956;-90
2022/10/20 09:56:30;;;;;;;1.20;1.10;;;26.00;61.30;;;;;;5073766;28;20448;-91
2022/10/20 09:58:59;;;;;;;1.10;1.00;;;25.80;61.40;;;;;;5073944;28;20454;-91
2022/10/20 10:01:25;;;;;;;1.27;1.10;;;25.80;61.80;;;;;;5072750;28;20448;-90
2022/10/20 10:04:00;;;;;;;0.90;0.90;;;25.70;62.00;;;;;;5059214;28;20552;-90
2022/10/20 10:06:40;;;;;;;3.07;1.03;;;25.60;62.20;;;;;;5055045;28;20568;-90
2022/10/20 10:09:25;;;;;;;1.87;0.80;;;25.60;62.40;;;;;;5056805;28;20451;-89
2022/10/20 10:11:59;;;;;;;1.10;1.00;;;25.50;62.50;;;;;;5056106;28;20457;-88
2022/10/20 10:14:27;;;;;;;1.30;1.20;;;25.50;62.70;;;;;;5058451;28;20456;-88
2022/10/20 10:16:54;;;;;;;2.60;1.27;;;25.50;62.90;;;;;;5054028;28;20452;-90
2022/10/20 10:19:26;;;;;;;1.13;1.03;;;25.50;63.00;;;;;;5051806;28;20453;-89
2022/10/20 10:21:55;;;;;;;1.00;0.90;;;25.30;62.90;;;;;;5053765;28;20824;-90
2022/10/20 10:24:41;;;;;;;1.20;1.10;;;25.40;63.10;;;;;;5054503;28;20455;-91
2022/10/20 10:27:24;;;;;;;1.00;0.90;;;25.40;63.00;;;;;;5054861;28;20548;-89
2022/10/20 10:29:51;;;;;;;2.20;1.10;;;25.40;63.20;;;;;;5054324;28;20444;-91
2022/10/20 10:32:23;;;;;;;1.50;1.40;;;25.30;63.30;;;;;;5061381;28;20541;-89
2022/10/20 10:35:08;;;;;;;4.97;2.53;;;25.30;63.30;;;;;;5066816;28;20461;-95
2022/10/20 10:37:36;;;;;;;1.90;1.70;;;25.30;63.10;;;;;;5076808;28;20450;-93
2022/10/20 10:40:12;;;;;;;1.20;1.10;;;25.30;63.10;;;;;;5076175;28;20470;-94
2022/10/20 10:43:29;;;;;;;1.20;1.10;;;25.30;63.30;;;;;;5080692;28;20467;-96
2022/10/20 10:45:58;;;;;;;2.23;1.20;;;25.30;63.30;;;;;;5075230;28;20843;-91
2022/10/20 10:49:04;;;;;;;1.23;1.13;;;25.20;63.60;;;;;;5074495;28;20451;-91
2022/10/20 10:51:44;;;;;;;1.70;1.30;;;25.20;63.50;;;;;;5001150;28;20453;-93
2022/10/20 10:54:24;;;;;;;1.40;1.30;;;25.20;63.70;;;;;;5101854;22;20488;-96
2022/10/20 10:56:55;;;;;;;1.00;0.90;;;25.20;63.80;;;;;;5101374;28;20940;-96
2022/10/20 10:59:26;;;;;;;1.13;1.03;;;25.20;63.80;;;;;;5101586;28;20434;-96
2022/10/20 11:02:29;;;;;;;1.30;1.20;;;25.20;63.90;;;;;;5107855;28;20441;-95
2022/10/20 11:05:27;;;;;;;1.80;1.70;;;25.20;63.80;;;;;;5098655;28;20873;-87
2022/10/20 11:08:06;;;;;;;2.43;2.20;;;25.20;63.90;;;;;;5093508;28;20521;-87
2022/10/20 11:10:41;;;;;;;9.13;6.87;;;25.20;64.00;;;;;;5093800;28;20447;-87
2022/10/20 11:13:27;;;;;;;12.70;8.30;;;25.20;64.10;;;;;;5073531;28;20452;-87
2022/10/20 11:16:12;;;;;;;7.67;5.37;;;25.20;64.20;;;;;;5073627;28;20801;-87
2022/10/20 11:18:56;;;;;;;6.37;4.20;;;25.20;64.20;;;;;;5073729;28;20435;-87
2022/10/20 11:21:29;;;;;;;5.07;4.47;;;25.20;64.40;;;;;;5074945;28;20932;-94
2022/10/20 11:24:27;;;;;;;10.00;5.40;;;25.10;64.30;;;;;;5074947;28;20457;-94
2022/10/20 11:30:19;;;;;;;5.70;4.10;;;25.20;64.50;;;;;;5075116;28;20932;-95
2022/10/20 11:32:52;;;;;;;6.00;3.97;;;25.10;64.60;;;;;;5074532;28;20451;-95
2022/10/20 11:35:27;;;;;;;3.60;3.10;;;25.10;64.60;;;;;;5057969;28;20950;-96
2022/10/20 11:38:01;;;;;;;6.70;3.80;;;25.10;64.50;;;;;;5054639;28;20499;-95
2022/10/20 11:40:38;;;;;;;4.13;3.23;;;25.10;64.50;;;;;;5054991;28;20418;-96
2022/10/20 11:43:13;;;;;;;3.93;3.37;;;25.10;64.50;;;;;;5037483;28;20551;-96
2022/10/20 11:45:47;;;;;;;4.30;3.90;;;25.10;64.60;;;;;;5037430;28;20463;-96
2022/10/20 11:48:22;;;;;;;5.77;3.10;;;25.10;64.50;;;;;;5037503;28;20507;-95
2022/10/20 11:51:00;;;;;;;5.60;3.10;;;25.10;64.60;;;;;;5058591;28;20439;-96
2022/10/20 11:53:39;;;;;;;4.03;3.03;;;25.10;64.60;;;;;;5054991;28;20493;-96
2022/10/20 11:56:37;;;;;;;5.07;2.90;;;25.10;64.60;;;;;;5038642;28;20435;-96
2022/10/20 11:59:22;;;;;;;7.20;3.30;;;25.10;64.50;;;;;;5057652;28;20506;-93
2022/10/20 12:02:14;;;;;;;5.67;3.80;;;25.10;64.70;;;;;;5042527;28;20456;-96
2022/10/20 12:05:07;;;;;;;4.90;3.90;;;25.10;64.70;;;;;;5043554;28;20451;-96
2022/10/20 12:07:56;;;;;;;4.67;3.47;;;25.10;64.80;;;;;;5056673;28;20487;-95
2022/10/20 12:10:32;;;;;;;9.77;2.97;;;25.10;64.90;;;;;;5060830;28;20439;-95
2022/10/20 12:21:01;;;;;;;4.93;2.47;;;25.20;65.40;;;;;;5052495;28;20540;-95
2022/10/20 12:24:06;;;;;;;5.97;3.07;;;25.10;65.20;;;;;;5063498;28;20451;-96
2022/10/20 12:27:09;;;;;;;4.30;2.50;;;25.20;65.10;;;;;;5078294;28;20530;-94
2022/10/20 12:30:31;;;;;;;6.47;2.70;;;25.20;65.30;;;;;;5082885;28;20419;-94
2022/10/20 12:44:27;;;;;;;40.43;36.27;;;25.10;65.60;;;;;;5040404;28;20395;-96
2022/10/20 12:46:58;;;;;;;52.93;47.13;;;25.10;66.00;;;;;;5039007;28;20563;-96
2022/10/20 13:40:13;;;;;;;44.13;39.53;;;25.10;66.20;;;;;;1145893;22;20911;-91
2022/10/20 13:42:56;;;;;;;41.20;36.90;;;25.10;66.20;;;;;;5077009;28;20856;-96
2022/10/20 13:45:30;;;;;;;41.93;37.63;;;25.00;66.00;;;;;;5078573;28;20462;-96
2022/10/20 13:48:12;;;;;;;43.77;38.47;;;25.20;66.20;;;;;;5077961;28;20829;-94
2022/10/20 13:50:42;;;;;;;39.93;35.83;;;25.20;66.20;;;;;;5072567;28;20448;-96
2022/10/20 14:25:38;;;;;;;34.13;29.73;;;25.20;66.70;;;;;;5077232;28;20404;-95
2022/10/20 14:46:04;;;;;;;27.60;24.90;;;25.10;66.50;;;;;;5027000;28;20429;-96
2022/10/20 14:48:37;;;;;;;28.37;24.50;;;25.10;66.60;;;;;;5027876;28;20524;-94
2022/10/20 14:51:35;;;;;;;30.00;24.57;;;25.10;66.60;;;;;;5068110;22;20519;-96
2022/10/20 14:57:47;;;;;;;27.00;24.30;;;25.10;66.50;;;;;;5055297;28;20441;-90
2022/10/20 15:00:35;;;;;;;25.97;23.20;;;25.20;66.50;;;;;;5027844;28;20450;-89
2022/10/20 15:03:06;;;;;;;25.60;23.00;;;25.20;66.50;;;;;;5074837;28;20463;-90
2022/10/20 15:05:40;;;;;;;25.80;23.20;;;25.10;66.60;;;;;;5074013;28;20442;-91
2022/10/20 15:08:17;;;;;;;25.57;23.07;;;25.20;66.60;;;;;;5075295;28;20482;-94
2022/10/20 15:10:45;;;;;;;25.17;22.77;;;25.20;66.60;;;;;;5075808;28;20450;-91
2022/10/20 15:13:25;;;;;;;23.13;20.87;;;25.10;66.40;;;;;;5074706;28;20778;-90
2022/10/20 15:15:52;;;;;;;24.13;21.63;;;25.20;66.50;;;;;;5075238;28;20938;-92